Tawakoni's Hourly Summary for Friday, March 17, 2017
Hour Temp
(f)
RH
(%)
Solar Rad.
(MJ/m2)
Rainfall
(in)
Wind
(mph)
3/17/2017 12:00 AM 64 84 0 0 9.38
3/17/2017 1:00 AM 64 84 0 0 10.29
3/17/2017 2:00 AM 64 84 0 0 11.4
3/17/2017 3:00 AM 64 85 0 0 9.34
3/17/2017 4:00 AM 65 80 0 0 10.26
3/17/2017 5:00 AM 66 79 0 0 11.74
3/17/2017 6:00 AM 66 79 0 0 11.46
3/17/2017 7:00 AM 66 79 0 0 9.52
3/17/2017 8:00 AM 66 79 0.01 0 8.17
3/17/2017 9:00 AM 66 78 0.25 0 9.09
3/17/2017 10:00 AM 67 75 0.43 0 10.46
3/17/2017 11:00 AM 68 74 0.65 0 11.51
3/17/2017 12:00 PM 69 69 1.24 0 11.7
3/17/2017 1:00 PM 70 69 1.17 0 11.65
3/17/2017 2:00 PM 71 68 0.86 0 12.52
3/17/2017 3:00 PM 71 69 0.75 0 11.28
3/17/2017 4:00 PM 71 66 0.82 0 11.34
3/17/2017 5:00 PM 73 63 0.92 0 11.28
3/17/2017 6:00 PM 74 59 0.66 0 9.54
3/17/2017 7:00 PM 74 57 0.31 0 7.51
3/17/2017 8:00 PM 72 60 0.04 0 3.83
3/17/2017 9:00 PM 66 65 0 0 1.23
3/17/2017 10:00 PM 65 75 0 0 1.27
3/17/2017 11:00 PM 68 68 0 0 3.67
Data Summary 67 72 8.11 0.00 9.14